createdAt,value
2019-03-28T00:00:49.565Z,8.03
2019-03-28T00:01:53.168Z,6.70
2019-03-28T00:02:56.848Z,7.70
2019-03-28T00:04:00.458Z,7.72
2019-03-28T00:05:04.609Z,8.43
2019-03-28T00:06:08.435Z,7.47
2019-03-28T00:07:12.046Z,7.90
2019-03-28T00:08:15.650Z,7.92
2019-03-28T00:09:19.495Z,7.75
2019-03-28T00:10:23.262Z,7.80
2019-03-28T00:11:26.988Z,6.95
2019-03-28T00:12:30.584Z,7.70
2019-03-28T00:13:34.197Z,7.50
2019-03-28T00:14:37.796Z,7.85
2019-03-28T00:15:41.398Z,7.92
2019-03-28T00:16:45.082Z,8.40
2019-03-28T00:17:48.690Z,8.05
2019-03-28T00:18:52.335Z,8.35
2019-03-28T00:19:56.698Z,7.33
2019-03-28T00:21:01.086Z,8.33
2019-03-28T00:22:05.776Z,8.68
2019-03-28T00:23:14.135Z,9.35
2019-03-28T00:24:22.449Z,7.72
2019-03-28T00:25:26.936Z,8.70
2019-03-28T00:26:31.366Z,7.87
2019-03-28T00:27:35.591Z,7.55
2019-03-28T00:28:39.190Z,8.68
2019-03-28T00:29:42.861Z,8.73
2019-03-28T00:30:46.602Z,8.10
2019-03-28T00:31:50.203Z,7.95
2019-03-28T00:32:53.850Z,7.62
2019-03-28T00:33:57.459Z,8.90
2019-03-28T00:35:01.054Z,8.68
2019-03-28T00:36:04.722Z,8.35
2019-03-28T00:37:09.034Z,8.68
2019-03-28T00:38:12.888Z,8.00
2019-03-28T00:39:16.555Z,9.28
2019-03-28T00:40:20.157Z,8.93
2019-03-28T00:41:23.758Z,8.68
2019-03-28T00:42:27.365Z,8.28
2019-03-28T00:43:31.031Z,9.08
2019-03-28T00:44:34.687Z,9.30
2019-03-28T00:45:38.215Z,9.05
2019-03-28T00:46:41.823Z,9.00
2019-03-28T00:47:45.426Z,9.00
2019-03-28T00:48:49.085Z,10.23
2019-03-28T00:49:52.682Z,8.85
2019-03-28T00:50:56.277Z,9.58
2019-03-28T00:51:59.933Z,9.25
2019-03-28T00:53:03.540Z,9.53
2019-03-28T00:54:07.197Z,10.45
2019-03-28T00:55:11.306Z,9.30
2019-03-28T00:56:14.983Z,8.80
2019-03-28T00:57:19.203Z,9.50
2019-03-28T00:58:23.023Z,9.13
2019-03-28T00:59:26.656Z,9.45
2019-03-28T01:00:30.397Z,10.13
2019-03-28T01:01:34.054Z,9.38
2019-03-28T01:02:37.656Z,9.75
2019-03-28T01:03:41.264Z,9.38
2019-03-28T01:04:44.864Z,10.10
2019-03-28T01:05:48.530Z,9.75
2019-03-28T01:06:52.192Z,10.05
2019-03-28T01:07:55.782Z,9.93
2019-03-28T01:08:59.365Z,8.93
2019-03-28T01:10:03.108Z,9.50
2019-03-28T01:11:06.780Z,10.30
2019-03-28T01:12:10.440Z,10.10
2019-03-28T01:13:14.034Z,10.13
2019-03-28T01:14:17.638Z,10.70
2019-03-28T01:15:21.241Z,9.95
2019-03-28T01:16:24.837Z,10.13
2019-03-28T01:17:28.506Z,10.25
2019-03-28T01:18:32.114Z,10.28
2019-03-28T01:19:35.713Z,9.85
2019-03-28T01:20:39.329Z,10.28
2019-03-28T01:21:42.932Z,10.25
2019-03-28T01:22:46.587Z,11.28
2019-03-28T01:23:50.197Z,10.70
2019-03-28T01:24:53.800Z,10.75
2019-03-28T01:25:57.456Z,11.03
2019-03-28T01:27:01.075Z,10.53
2019-03-28T01:28:04.733Z,10.32
2019-03-28T01:29:08.339Z,10.88
2019-03-28T01:30:12.012Z,10.30
2019-03-28T01:31:15.655Z,10.38
2019-03-28T01:32:19.267Z,10.48
2019-03-28T01:33:22.873Z,11.00
2019-03-28T01:34:26.469Z,9.50
2019-03-28T01:35:30.066Z,10.70
2019-03-28T01:36:33.723Z,10.40
2019-03-28T01:37:37.320Z,10.88
2019-03-28T01:38:40.923Z,10.60
2019-03-28T01:39:44.526Z,10.70
2019-03-28T01:40:48.129Z,10.55
2019-03-28T01:41:51.785Z,10.40
2019-03-28T01:42:56.070Z,12.58
2019-03-28T01:43:59.690Z,11.30
2019-03-28T01:45:04.165Z,20.02
2019-03-28T01:46:07.759Z,21.97
2019-03-28T01:47:11.413Z,21.35
2019-03-28T01:48:15.061Z,21.97
2019-03-28T01:49:18.662Z,22.07
2019-03-28T01:50:22.258Z,13.38
2019-03-28T01:51:25.857Z,16.60
2019-03-28T01:52:29.524Z,17.37
2019-03-28T01:53:33.110Z,23.27
2019-03-28T01:54:36.730Z,21.85
2019-03-28T01:55:40.329Z,20.62
2019-03-28T01:56:43.928Z,16.93
2019-03-28T01:57:47.585Z,17.32
2019-03-28T01:58:51.185Z,14.60
2019-03-28T01:59:54.795Z,12.35
2019-03-28T02:00:58.377Z,12.55
2019-03-28T02:02:01.990Z,12.95
2019-03-28T02:03:05.697Z,13.08
2019-03-28T02:04:09.332Z,12.82
2019-03-28T02:05:13.072Z,12.25
2019-03-28T02:06:16.682Z,13.18
2019-03-28T02:07:20.287Z,11.80
2019-03-28T02:08:24.956Z,11.08
2019-03-28T02:09:28.643Z,10.93
2019-03-28T02:10:32.245Z,11.50
2019-03-28T02:11:35.887Z,12.10
2019-03-28T02:12:39.657Z,10.63
2019-03-28T02:13:43.305Z,10.25
2019-03-28T02:14:46.912Z,10.63
2019-03-28T02:15:50.585Z,11.10
2019-03-28T02:16:54.182Z,11.97
2019-03-28T02:17:57.841Z,11.10
2019-03-28T02:19:01.444Z,11.38
2019-03-28T02:20:10.303Z,10.65
2019-03-28T02:21:14.246Z,11.88
2019-03-28T02:22:17.864Z,10.63
2019-03-28T02:23:21.522Z,10.88
2019-03-28T02:24:25.122Z,12.10
2019-03-28T02:25:28.793Z,10.93
2019-03-28T02:26:32.419Z,12.18
2019-03-28T02:27:36.106Z,10.35
2019-03-28T02:28:39.764Z,11.20
2019-03-28T02:29:43.371Z,12.18
2019-03-28T02:30:46.985Z,12.70
2019-03-28T02:31:50.586Z,12.45
2019-03-28T02:32:54.186Z,12.23
2019-03-28T02:33:57.838Z,11.85
2019-03-28T02:35:01.446Z,10.90
2019-03-28T02:36:05.050Z,11.80
2019-03-28T02:37:08.650Z,12.95
2019-03-28T02:38:12.250Z,11.00
2019-03-28T02:39:15.907Z,11.25
2019-03-28T02:40:19.511Z,11.70
2019-03-28T02:41:23.185Z,11.63
2019-03-28T02:42:27.808Z,13.75
2019-03-28T02:43:31.691Z,12.47
2019-03-28T02:44:35.363Z,12.50
2019-03-28T02:45:38.978Z,12.03
2019-03-28T02:46:42.581Z,12.23
2019-03-28T02:47:46.182Z,14.13
2019-03-28T02:48:49.793Z,13.28
2019-03-28T02:49:53.441Z,12.45
2019-03-28T02:50:57.107Z,12.10
2019-03-28T02:52:00.707Z,12.20
2019-03-28T02:53:04.385Z,13.20
2019-03-28T02:54:07.977Z,13.50
2019-03-28T02:55:11.570Z,12.95
2019-03-28T02:56:15.832Z,12.60
2019-03-28T02:57:19.731Z,13.13
2019-03-28T02:58:23.331Z,13.58
2019-03-28T02:59:27.083Z,13.03
2019-03-28T03:00:30.690Z,13.45
2019-03-28T03:01:34.313Z,13.00
2019-03-28T03:02:37.901Z,13.45
2019-03-28T03:03:41.522Z,13.18
2019-03-28T03:04:45.175Z,13.72
2019-03-28T03:05:48.848Z,13.38
2019-03-28T03:06:52.451Z,14.50
2019-03-28T03:07:56.056Z,12.58
2019-03-28T03:08:59.727Z,13.15
2019-03-28T03:10:05.521Z,11.93
2019-03-28T03:11:09.647Z,13.65
2019-03-28T03:12:13.432Z,13.75
2019-03-28T03:13:17.050Z,12.68
2019-03-28T03:14:20.641Z,14.28
2019-03-28T03:15:24.304Z,13.18
2019-03-28T03:16:27.907Z,14.43
2019-03-28T03:17:31.511Z,12.70
2019-03-28T03:18:35.106Z,13.13
2019-03-28T03:19:38.719Z,13.15
2019-03-28T03:20:43.505Z,13.30
2019-03-28T03:21:47.231Z,13.93
2019-03-28T03:22:50.849Z,13.53
2019-03-28T03:23:54.450Z,13.65
2019-03-28T03:24:58.047Z,14.40
2019-03-28T03:26:01.710Z,13.18
2019-03-28T03:27:05.387Z,13.53
2019-03-28T03:28:09.028Z,13.50
2019-03-28T03:29:12.654Z,14.73
2019-03-28T03:30:16.891Z,13.88
2019-03-28T03:31:21.787Z,14.25
2019-03-28T03:32:25.725Z,14.25
2019-03-28T03:33:29.376Z,14.75
2019-03-28T03:34:33.679Z,13.62
2019-03-28T03:35:37.368Z,14.65
2019-03-28T03:36:41.039Z,15.03
2019-03-28T03:37:44.638Z,14.80
2019-03-28T03:38:48.295Z,13.88
2019-03-28T03:39:51.902Z,15.08
2019-03-28T03:40:55.496Z,15.10
2019-03-28T03:41:59.096Z,14.13
2019-03-28T03:43:02.759Z,15.05
2019-03-28T03:44:06.424Z,14.18
2019-03-28T03:45:10.415Z,13.80
2019-03-28T03:46:14.024Z,14.73
2019-03-28T03:47:17.629Z,13.90
2019-03-28T03:48:21.241Z,14.33
2019-03-28T03:49:24.879Z,14.73
2019-03-28T03:50:29.340Z,15.48
2019-03-28T03:51:33.013Z,14.47
2019-03-28T03:52:36.693Z,15.88
2019-03-28T03:53:40.417Z,15.00
2019-03-28T03:54:44.086Z,14.43
2019-03-28T03:55:47.697Z,15.05
2019-03-28T03:56:51.298Z,15.18
2019-03-28T03:57:54.900Z,14.98
2019-03-28T03:58:58.574Z,15.43
2019-03-28T04:00:02.212Z,15.53
2019-03-28T04:01:05.787Z,15.18
2019-03-28T04:02:09.384Z,15.18
2019-03-28T04:03:12.994Z,15.13
2019-03-28T04:04:16.660Z,16.02
2019-03-28T04:05:20.255Z,15.38
2019-03-28T04:06:23.866Z,15.55
2019-03-28T04:07:27.479Z,16.35
2019-03-28T04:08:31.148Z,17.05
2019-03-28T04:09:34.813Z,15.50
2019-03-28T04:10:38.426Z,15.72
2019-03-28T04:11:42.026Z,15.63
2019-03-28T04:12:45.640Z,16.75
2019-03-28T04:13:49.254Z,16.57
2019-03-28T04:14:52.914Z,16.07
2019-03-28T04:15:56.515Z,16.70
2019-03-28T04:17:00.182Z,15.78
2019-03-28T04:18:04.028Z,17.10
2019-03-28T04:19:07.625Z,16.42
2019-03-28T04:20:11.404Z,16.07
2019-03-28T04:21:15.017Z,16.97
2019-03-28T04:22:18.642Z,15.98
2019-03-28T04:23:22.226Z,16.48
2019-03-28T04:24:25.831Z,15.48
2019-03-28T04:25:29.484Z,15.48
2019-03-28T04:26:33.084Z,18.07
2019-03-28T04:27:36.673Z,16.40
2019-03-28T04:28:40.286Z,16.90
2019-03-28T04:29:43.882Z,15.75
2019-03-28T04:30:47.553Z,17.20
2019-03-28T04:31:51.179Z,16.52
2019-03-28T04:32:54.838Z,17.60
2019-03-28T04:33:58.454Z,16.75
2019-03-28T04:35:02.050Z,17.92
2019-03-28T04:36:05.653Z,17.35
2019-03-28T04:37:09.262Z,17.12
2019-03-28T04:38:12.934Z,16.62
2019-03-28T04:39:16.646Z,18.25
2019-03-28T04:40:20.435Z,16.50
2019-03-28T04:41:24.046Z,17.45
2019-03-28T04:42:27.711Z,18.07
2019-03-28T04:43:31.291Z,16.90
2019-03-28T04:44:34.947Z,17.82
2019-03-28T04:45:38.623Z,16.10
2019-03-28T04:46:42.229Z,17.42
2019-03-28T04:47:45.826Z,18.20
2019-03-28T04:48:50.704Z,17.98
2019-03-28T04:49:54.581Z,17.50
2019-03-28T04:50:58.184Z,17.62
2019-03-28T04:52:01.791Z,17.27
2019-03-28T04:53:05.386Z,17.52
2019-03-28T04:54:09.950Z,16.95
2019-03-28T04:55:13.766Z,17.77
2019-03-28T04:56:17.370Z,19.00
2019-03-28T04:57:20.968Z,18.57
2019-03-28T04:58:24.630Z,18.02
2019-03-28T04:59:28.223Z,18.67
2019-03-28T05:00:31.904Z,19.00
2019-03-28T05:01:35.501Z,17.98
2019-03-28T05:02:39.171Z,18.82
2019-03-28T05:03:42.827Z,19.00
2019-03-28T05:04:46.433Z,17.30
2019-03-28T05:05:50.039Z,17.85
2019-03-28T05:06:53.638Z,18.35
2019-03-28T05:07:57.294Z,17.90
2019-03-28T05:09:00.905Z,19.20
2019-03-28T05:10:09.137Z,17.32
2019-03-28T05:11:12.754Z,17.50
2019-03-28T05:12:16.362Z,18.82
2019-03-28T05:13:20.344Z,18.12
2019-03-28T05:14:24.114Z,17.82
2019-03-28T05:15:27.708Z,18.52
2019-03-28T05:16:31.320Z,18.50
2019-03-28T05:17:34.986Z,17.00
2019-03-28T05:18:38.602Z,18.05
2019-03-28T05:19:42.204Z,19.27
2019-03-28T05:20:45.804Z,20.60
2019-03-28T05:21:49.413Z,18.00
2019-03-28T05:22:53.057Z,19.10
2019-03-28T05:23:56.657Z,18.70
2019-03-28T05:25:00.334Z,19.80
2019-03-28T05:26:04.090Z,18.92
2019-03-28T05:27:07.689Z,18.85
2019-03-28T05:28:11.289Z,19.65
2019-03-28T05:29:14.894Z,18.50
2019-03-28T05:30:18.558Z,19.30
2019-03-28T05:31:22.213Z,19.90
2019-03-28T05:32:26.257Z,19.52
2019-03-28T05:33:29.820Z,18.37
2019-03-28T05:34:34.354Z,18.92
2019-03-28T05:35:38.035Z,17.35
2019-03-28T05:36:41.688Z,19.82
2019-03-28T05:37:45.300Z,20.37
2019-03-28T05:38:48.905Z,18.85
2019-03-28T05:39:52.565Z,18.42
2019-03-28T05:40:56.183Z,18.95
2019-03-28T05:41:59.790Z,20.45
2019-03-28T05:43:03.390Z,19.35
2019-03-28T05:44:06.998Z,19.15
2019-03-28T05:45:11.290Z,22.17
2019-03-28T05:46:14.895Z,58.20
2019-03-28T05:47:18.511Z,550.53
2019-03-28T05:48:22.128Z,569.65
2019-03-28T05:49:25.787Z,414.50
2019-03-28T05:50:29.381Z,334.80
2019-03-28T05:51:32.994Z,64.60
2019-03-28T05:52:36.605Z,86.95
2019-03-28T05:53:40.210Z,75.17
2019-03-28T05:54:43.877Z,79.60
2019-03-28T05:55:47.483Z,33.35
2019-03-28T05:56:51.086Z,33.95
2019-03-28T05:57:54.687Z,26.40
2019-03-28T05:59:10.191Z,26.55
2019-03-28T06:00:04.299Z,24.77
2019-03-28T06:01:07.954Z,22.25
2019-03-28T06:02:11.620Z,22.32
2019-03-28T06:03:15.231Z,22.93
2019-03-28T06:04:18.881Z,20.95
2019-03-28T06:05:22.470Z,21.65
2019-03-28T06:06:26.073Z,22.02
2019-03-28T06:07:29.838Z,23.10
2019-03-28T06:08:33.813Z,23.10
2019-03-28T06:09:40.132Z,21.70
2019-03-28T06:10:43.232Z,22.10
2019-03-28T06:11:47.164Z,21.93
2019-03-28T06:12:51.186Z,22.82
2019-03-28T06:13:55.189Z,22.05
2019-03-28T06:14:58.955Z,21.60
2019-03-28T06:16:02.810Z,22.98
2019-03-28T06:17:06.381Z,21.27
2019-03-28T06:18:09.978Z,22.20
2019-03-28T06:19:13.578Z,20.45
2019-03-28T06:20:17.249Z,22.50
2019-03-28T06:21:21.412Z,21.80
2019-03-28T06:22:25.009Z,21.60
2019-03-28T06:23:28.646Z,23.92
2019-03-28T06:24:32.244Z,21.33
2019-03-28T06:25:35.854Z,20.77
2019-03-28T06:26:39.470Z,21.85
2019-03-28T06:27:43.087Z,21.27
2019-03-28T06:28:46.735Z,21.40
2019-03-28T06:29:50.334Z,21.35
2019-03-28T06:30:55.852Z,20.62
2019-03-28T06:31:59.351Z,22.05
2019-03-28T06:33:02.948Z,20.60
2019-03-28T06:34:06.667Z,21.87
2019-03-28T06:35:10.410Z,21.37
2019-03-28T06:36:14.419Z,22.73
2019-03-28T06:37:18.214Z,22.93
2019-03-28T06:38:21.859Z,21.37
2019-03-28T06:39:25.571Z,20.65
2019-03-28T06:40:29.157Z,20.30
2019-03-28T06:41:32.760Z,21.20
2019-03-28T06:42:36.359Z,21.17
2019-03-28T06:43:42.081Z,20.00
2019-03-28T06:44:45.256Z,20.90
2019-03-28T06:45:48.877Z,20.52
2019-03-28T06:46:52.624Z,20.90
2019-03-28T06:47:56.264Z,20.25
2019-03-28T06:48:59.869Z,19.05
2019-03-28T06:50:04.534Z,21.52
2019-03-28T06:51:08.146Z,21.05
2019-03-28T06:52:11.903Z,20.75
2019-03-28T06:53:15.597Z,19.65
2019-03-28T06:54:19.219Z,21.27
2019-03-28T06:55:24.172Z,19.40
2019-03-28T06:56:27.877Z,19.40
2019-03-28T06:57:31.475Z,19.87
2019-03-28T06:58:35.090Z,21.02
2019-03-28T06:59:38.703Z,19.75
2019-03-28T07:00:42.369Z,20.02
2019-03-28T07:01:46.095Z,20.92
2019-03-28T07:02:49.707Z,21.30
2019-03-28T07:03:53.313Z,19.82
2019-03-28T07:04:57.003Z,18.40
2019-03-28T07:06:00.732Z,19.70
2019-03-28T07:07:04.335Z,19.45
2019-03-28T07:08:08.032Z,20.60
2019-03-28T07:09:11.990Z,19.30
2019-03-28T07:10:15.770Z,18.73
2019-03-28T07:11:19.395Z,19.67
2019-03-28T07:12:23.033Z,18.85
2019-03-28T07:13:26.655Z,19.05
2019-03-28T07:14:30.264Z,19.27
2019-03-28T07:15:36.607Z,19.30
2019-03-28T07:16:39.244Z,19.35
2019-03-28T07:17:42.897Z,19.48
2019-03-28T07:18:46.521Z,20.08
2019-03-28T07:19:50.125Z,19.10
2019-03-28T07:20:53.734Z,20.52
2019-03-28T07:21:57.412Z,19.12
2019-03-28T07:23:00.974Z,19.00
2019-03-28T07:24:04.647Z,19.00
2019-03-28T07:25:08.793Z,18.77
2019-03-28T07:26:12.411Z,20.65
2019-03-28T07:27:16.069Z,18.67
2019-03-28T07:28:19.670Z,19.25
2019-03-28T07:29:23.267Z,18.95
2019-03-28T07:30:26.882Z,19.25
2019-03-28T07:31:30.548Z,20.23
2019-03-28T07:32:34.228Z,20.30
2019-03-28T07:33:37.838Z,18.90
2019-03-28T07:34:41.460Z,18.90
2019-03-28T07:35:45.090Z,20.70
2019-03-28T07:36:48.695Z,19.20
2019-03-28T07:37:52.301Z,19.00
2019-03-28T07:38:55.906Z,19.07
2019-03-28T07:39:59.508Z,19.25
2019-03-28T07:41:03.411Z,19.12
2019-03-28T07:42:07.081Z,19.00
2019-03-28T07:43:10.736Z,17.45
2019-03-28T07:44:14.429Z,17.45
2019-03-28T07:45:18.102Z,18.10
2019-03-28T07:46:21.715Z,18.40
2019-03-28T07:47:25.394Z,18.12
2019-03-28T07:48:29.004Z,17.95
2019-03-28T07:49:32.650Z,17.60
2019-03-28T07:50:36.258Z,17.27
2019-03-28T07:51:39.866Z,16.87
2019-03-28T07:52:43.466Z,16.65
2019-03-28T07:53:47.477Z,16.57
2019-03-28T07:54:51.177Z,16.42
2019-03-28T07:55:54.834Z,16.80
2019-03-28T07:56:58.445Z,15.15
2019-03-28T07:58:02.052Z,15.45
2019-03-28T07:59:05.654Z,15.05
2019-03-28T08:00:11.742Z,14.45
2019-03-28T08:01:17.935Z,14.05
2019-03-28T08:02:20.615Z,14.28
2019-03-28T08:03:24.202Z,14.70
2019-03-28T08:04:27.816Z,14.90
2019-03-28T08:05:31.495Z,13.88
2019-03-28T08:06:35.171Z,14.95
2019-03-28T08:07:45.009Z,13.70
2019-03-28T08:08:44.347Z,14.78
2019-03-28T08:09:48.008Z,11.73
2019-03-28T08:10:51.620Z,12.37
2019-03-28T08:11:55.231Z,13.22
2019-03-28T08:12:58.894Z,13.68
2019-03-28T08:14:02.520Z,11.10
2019-03-28T08:15:09.188Z,11.80
2019-03-28T08:16:12.804Z,11.30
2019-03-28T08:17:16.426Z,12.13
2019-03-28T08:18:20.105Z,12.50
2019-03-28T08:19:23.754Z,14.35
2019-03-28T08:20:27.375Z,15.25
2019-03-28T08:21:31.063Z,15.65
2019-03-28T08:22:34.688Z,14.30
2019-03-28T08:23:38.466Z,14.70
2019-03-28T08:24:42.143Z,15.58
2019-03-28T08:25:45.788Z,15.50
2019-03-28T08:26:49.395Z,15.20
2019-03-28T08:27:52.994Z,14.90
2019-03-28T08:28:56.601Z,13.88
2019-03-28T08:30:00.475Z,13.18
2019-03-28T08:31:04.160Z,13.68
2019-03-28T08:32:09.726Z,13.68
2019-03-28T08:33:13.331Z,13.60
2019-03-28T08:34:17.092Z,13.38
2019-03-28T08:35:20.695Z,13.85
2019-03-28T08:36:24.685Z,14.18
2019-03-28T08:37:28.753Z,13.50
2019-03-28T08:38:34.104Z,14.58
2019-03-28T08:39:37.909Z,11.35
2019-03-28T08:40:43.268Z,12.47
2019-03-28T08:41:48.692Z,12.90
2019-03-28T08:42:52.130Z,12.85
2019-03-28T08:43:55.733Z,13.32
2019-03-28T08:44:59.401Z,14.85
2019-03-28T08:46:03.149Z,12.45
2019-03-28T08:47:06.856Z,13.55
2019-03-28T08:48:10.468Z,12.53
2019-03-28T08:49:14.077Z,13.13
2019-03-28T08:50:17.720Z,13.53
2019-03-28T08:51:21.330Z,12.63
2019-03-28T08:52:24.935Z,12.18
2019-03-28T08:53:28.549Z,12.33
2019-03-28T08:54:32.206Z,12.15
2019-03-28T08:55:35.821Z,12.63
2019-03-28T08:56:39.436Z,10.60
2019-03-28T08:57:43.058Z,11.45
2019-03-28T08:58:46.670Z,11.48
2019-03-28T08:59:50.320Z,12.78
2019-03-28T09:00:53.985Z,11.83
2019-03-28T09:01:57.715Z,12.75
2019-03-28T09:03:01.678Z,11.75
2019-03-28T09:04:05.441Z,11.50
2019-03-28T09:05:09.113Z,11.65
2019-03-28T09:06:12.780Z,10.80
2019-03-28T09:07:17.575Z,11.60
2019-03-28T09:08:21.370Z,11.40
2019-03-28T09:09:24.981Z,12.03
2019-03-28T09:10:28.653Z,11.75
2019-03-28T09:11:32.297Z,11.78
2019-03-28T09:12:36.041Z,13.22
2019-03-28T09:13:39.648Z,11.55
2019-03-28T09:14:43.256Z,12.45
2019-03-28T09:15:47.004Z,12.15
2019-03-28T09:16:50.723Z,11.80
2019-03-28T09:17:54.324Z,12.10
2019-03-28T09:18:58.008Z,12.90
2019-03-28T09:20:01.653Z,12.65
2019-03-28T09:21:05.330Z,13.45
2019-03-28T09:22:08.980Z,14.38
2019-03-28T09:23:12.597Z,13.62
2019-03-28T09:24:16.260Z,13.65
2019-03-28T09:25:19.863Z,13.53
2019-03-28T09:26:23.473Z,13.10
2019-03-28T09:27:27.080Z,12.05
2019-03-28T09:28:30.743Z,11.43
2019-03-28T09:29:34.394Z,12.30
2019-03-28T09:30:48.650Z,11.97
2019-03-28T09:31:47.671Z,12.80
2019-03-28T09:32:51.422Z,11.73
2019-03-28T09:33:55.032Z,11.75
2019-03-28T09:34:59.287Z,12.68
2019-03-28T09:36:03.010Z,11.65
2019-03-28T09:37:06.683Z,12.73
2019-03-28T09:38:10.338Z,11.90
2019-03-28T09:39:13.935Z,12.07
2019-03-28T09:40:17.542Z,12.70
2019-03-28T09:41:21.200Z,13.00
2019-03-28T09:42:24.861Z,15.90
2019-03-28T09:43:28.501Z,12.07
2019-03-28T09:44:32.109Z,13.20
2019-03-28T09:45:35.856Z,14.25
2019-03-28T09:46:39.468Z,13.35
2019-03-28T09:47:43.159Z,14.00
2019-03-28T09:48:46.755Z,13.95
2019-03-28T09:49:50.363Z,13.68
2019-03-28T09:50:53.961Z,14.53
2019-03-28T09:51:57.566Z,13.40
2019-03-28T09:53:01.220Z,14.00
2019-03-28T09:54:04.966Z,11.55
2019-03-28T09:55:08.750Z,13.00
2019-03-28T09:56:12.347Z,13.30
2019-03-28T09:57:15.952Z,12.73
2019-03-28T09:58:19.619Z,12.45
2019-03-28T09:59:23.231Z,12.28
2019-03-28T10:00:26.916Z,12.43
2019-03-28T10:01:30.588Z,12.98
2019-03-28T10:02:34.179Z,12.10
2019-03-28T10:03:37.854Z,11.63
2019-03-28T10:04:41.451Z,12.55
2019-03-28T10:05:45.095Z,12.70
2019-03-28T10:06:48.763Z,11.78
2019-03-28T10:07:52.396Z,10.68
2019-03-28T10:08:56.004Z,9.10
2019-03-28T10:09:59.679Z,9.80
2019-03-28T10:11:03.310Z,8.38
2019-03-28T10:12:06.973Z,9.23
2019-03-28T10:13:10.581Z,8.65
2019-03-28T10:14:14.174Z,8.33
2019-03-28T10:15:18.093Z,9.30
2019-03-28T10:16:21.767Z,9.38
2019-03-28T10:17:25.379Z,8.40
2019-03-28T10:18:30.247Z,9.30
2019-03-28T10:19:34.053Z,10.35
2019-03-28T10:20:37.728Z,10.80
2019-03-28T10:21:41.409Z,11.12
2019-03-28T10:22:45.249Z,10.40
2019-03-28T10:23:48.856Z,11.57
2019-03-28T10:24:52.528Z,11.65
2019-03-28T10:25:56.186Z,11.55
2019-03-28T10:26:59.796Z,10.43
2019-03-28T10:28:03.475Z,9.65
2019-03-28T10:29:07.093Z,9.68
2019-03-28T10:30:12.555Z,8.33
2019-03-28T10:31:17.064Z,8.30
2019-03-28T10:32:20.746Z,8.65
2019-03-28T10:33:24.686Z,8.05
2019-03-28T10:34:28.433Z,7.85
2019-03-28T10:35:32.137Z,7.15
2019-03-28T10:36:35.749Z,7.30
2019-03-28T10:37:39.369Z,6.50
2019-03-28T10:38:42.982Z,6.15
2019-03-28T10:39:46.653Z,5.80
2019-03-28T10:40:50.307Z,5.87
2019-03-28T10:41:54.748Z,6.20
2019-03-28T10:42:58.623Z,6.10
2019-03-28T10:44:02.274Z,6.55
2019-03-28T10:45:07.908Z,6.90
2019-03-28T10:46:11.581Z,7.42
2019-03-28T10:47:15.237Z,7.40
2019-03-28T10:48:19.487Z,6.75
2019-03-28T10:49:23.649Z,7.28
2019-03-28T10:50:40.210Z,6.92
2019-03-28T10:51:32.631Z,8.23
2019-03-28T10:52:36.246Z,9.23
2019-03-28T10:53:39.853Z,7.92
2019-03-28T10:54:43.455Z,8.05
2019-03-28T10:55:47.068Z,8.08
2019-03-28T10:56:52.599Z,8.30
2019-03-28T10:57:55.954Z,7.25
2019-03-28T10:58:59.619Z,8.43
2019-03-28T11:00:04.877Z,8.80
2019-03-28T11:01:08.549Z,7.25
2019-03-28T11:02:12.637Z,8.55
2019-03-28T11:03:16.293Z,7.40
2019-03-28T11:04:19.895Z,7.30
2019-03-28T11:05:23.790Z,7.83
2019-03-28T11:06:27.401Z,7.37
2019-03-28T11:07:31.016Z,7.30
2019-03-28T11:08:36.557Z,7.08
2019-03-28T11:09:39.911Z,6.00
2019-03-28T11:10:43.520Z,7.22
2019-03-28T11:11:47.251Z,5.85
2019-03-28T11:12:50.842Z,7.25
2019-03-28T11:13:54.447Z,5.72
2019-03-28T11:14:58.063Z,4.90
2019-03-28T11:16:01.750Z,5.42
2019-03-28T11:17:05.326Z,4.80
2019-03-28T11:18:08.925Z,5.12
2019-03-28T11:19:15.548Z,5.78
2019-03-28T11:20:17.892Z,4.97
2019-03-28T11:21:21.506Z,4.65
2019-03-28T11:22:25.264Z,4.62
2019-03-28T11:23:28.858Z,5.33
2019-03-28T11:24:32.509Z,5.30
2019-03-28T11:25:36.177Z,4.90
2019-03-28T11:26:39.785Z,5.53
2019-03-28T11:27:43.385Z,4.75
2019-03-28T11:28:46.989Z,5.10
2019-03-28T11:29:51.524Z,4.72
2019-03-28T11:30:55.179Z,4.50
2019-03-28T11:31:58.800Z,4.75
2019-03-28T11:33:02.408Z,4.85
2019-03-28T11:34:06.082Z,5.35
2019-03-28T11:35:09.818Z,5.00
2019-03-28T11:36:13.531Z,5.00
2019-03-28T11:37:25.817Z,4.30
2019-03-28T11:38:22.385Z,5.47
2019-03-28T11:39:25.994Z,5.67
2019-03-28T11:40:29.600Z,5.00
2019-03-28T11:41:33.257Z,5.00
2019-03-28T11:42:37.022Z,4.35
2019-03-28T11:43:40.624Z,5.20
2019-03-28T11:44:44.283Z,3.72
2019-03-28T11:45:47.872Z,4.17
2019-03-28T11:46:51.467Z,4.70
2019-03-28T11:47:55.081Z,4.60
2019-03-28T11:48:58.674Z,4.50
2019-03-28T11:50:02.419Z,4.35
2019-03-28T11:51:06.005Z,4.50
2019-03-28T11:52:09.603Z,4.35
2019-03-28T11:53:13.197Z,5.20
2019-03-28T11:54:16.801Z,4.25
2019-03-28T11:55:20.458Z,5.08
2019-03-28T11:56:24.067Z,4.60
2019-03-28T11:57:27.712Z,4.80
2019-03-28T11:58:31.357Z,5.05
2019-03-28T11:59:34.959Z,5.85
2019-03-28T12:00:38.552Z,5.50
2019-03-28T12:01:42.201Z,5.50
2019-03-28T12:02:45.813Z,5.45
2019-03-28T12:03:49.477Z,5.80
2019-03-28T12:04:53.087Z,7.00
2019-03-28T12:05:56.689Z,5.40
2019-03-28T12:07:00.306Z,6.92
2019-03-28T12:08:03.964Z,6.62
2019-03-28T12:09:07.792Z,7.85
2019-03-28T12:10:12.338Z,7.58
2019-03-28T12:11:15.996Z,7.22
2019-03-28T12:12:19.615Z,6.85
2019-03-28T12:13:23.210Z,7.50
2019-03-28T12:14:26.816Z,6.50
2019-03-28T12:15:30.428Z,6.45
2019-03-28T12:16:34.084Z,6.15
2019-03-28T12:17:37.756Z,5.95
2019-03-28T12:18:41.366Z,6.53
2019-03-28T12:19:45.001Z,5.33
2019-03-28T12:20:48.619Z,5.47
2019-03-28T12:21:52.345Z,5.30
2019-03-28T12:22:56.168Z,5.97
2019-03-28T12:23:59.840Z,5.65
2019-03-28T12:25:04.489Z,6.05
2019-03-28T12:26:08.115Z,5.03
2019-03-28T12:27:11.791Z,5.72
2019-03-28T12:28:15.396Z,5.03
2019-03-28T12:29:19.034Z,5.45
2019-03-28T12:30:22.753Z,5.65
2019-03-28T12:31:26.359Z,5.42
2019-03-28T12:32:29.961Z,5.40
2019-03-28T12:33:33.554Z,5.03
2019-03-28T12:34:37.217Z,5.53
2019-03-28T12:35:40.830Z,4.55
2019-03-28T12:36:44.698Z,5.40
2019-03-28T12:37:48.440Z,4.42
2019-03-28T12:38:52.043Z,4.75
2019-03-28T12:39:55.680Z,4.75
2019-03-28T12:40:59.286Z,4.92
2019-03-28T12:42:02.895Z,5.17
2019-03-28T12:43:06.496Z,4.90
2019-03-28T12:44:10.143Z,4.40
2019-03-28T12:45:14.379Z,4.58
2019-03-28T12:46:18.026Z,5.30
2019-03-28T12:47:21.638Z,4.58
2019-03-28T12:48:25.247Z,4.62
2019-03-28T12:49:28.845Z,4.35
2019-03-28T12:50:32.527Z,4.55
2019-03-28T12:51:36.173Z,4.10
2019-03-28T12:52:39.774Z,3.50
2019-03-28T12:53:43.385Z,4.05
2019-03-28T12:54:47.004Z,4.70
2019-03-28T12:55:50.607Z,3.70
2019-03-28T12:56:54.270Z,4.97
2019-03-28T12:57:57.887Z,4.17
2019-03-28T12:59:01.495Z,3.90
2019-03-28T13:00:07.319Z,4.35
2019-03-28T13:01:11.100Z,4.20
2019-03-28T13:02:28.143Z,3.58
2019-03-28T13:03:19.990Z,5.67
2019-03-28T13:04:23.665Z,4.60
2019-03-28T13:05:27.256Z,4.20
2019-03-28T13:06:30.854Z,4.30
2019-03-28T13:07:34.457Z,4.22
2019-03-28T13:08:38.064Z,4.33
2019-03-28T13:09:41.695Z,4.12
2019-03-28T13:10:45.286Z,5.15
2019-03-28T13:11:48.878Z,4.25
2019-03-28T13:12:52.505Z,4.62
2019-03-28T13:13:56.146Z,4.20
2019-03-28T13:14:59.749Z,4.85
2019-03-28T13:16:03.372Z,5.25
2019-03-28T13:17:06.971Z,5.10
2019-03-28T13:18:10.614Z,4.45
2019-03-28T13:19:14.226Z,4.42
2019-03-28T13:20:17.970Z,4.05
2019-03-28T13:21:21.567Z,4.35
2019-03-28T13:22:25.166Z,4.53
2019-03-28T13:23:28.828Z,4.40
2019-03-28T13:24:32.434Z,4.15
2019-03-28T13:25:36.040Z,5.25
2019-03-28T13:26:39.637Z,5.05
2019-03-28T13:27:43.237Z,3.95
2019-03-28T13:28:46.875Z,4.80
2019-03-28T13:29:50.476Z,4.90
2019-03-28T13:30:54.082Z,4.20
2019-03-28T13:31:57.681Z,5.30
2019-03-28T13:33:01.282Z,4.83
2019-03-28T13:34:04.920Z,4.62
2019-03-28T13:35:09.210Z,4.85
2019-03-28T13:36:12.806Z,5.30
2019-03-28T13:37:16.412Z,4.80
2019-03-28T13:38:20.013Z,5.05
2019-03-28T13:39:23.612Z,4.50
2019-03-28T13:40:27.275Z,4.42
2019-03-28T13:41:30.887Z,4.62
2019-03-28T13:42:34.825Z,4.97
2019-03-28T13:43:38.431Z,4.90
2019-03-28T13:44:42.076Z,4.83
2019-03-28T13:45:45.715Z,4.50
2019-03-28T13:46:49.311Z,4.72
2019-03-28T13:47:54.403Z,4.60
2019-03-28T13:48:58.349Z,5.33
2019-03-28T13:50:01.941Z,4.70
2019-03-28T13:51:05.587Z,4.87